sensor_id;sensor_type;location;lat;lon;timestamp;P1;durP1;ratioP1;P2;durP2;ratioP2
76292;SDS011;67256;51.154;4.164;2023-05-14T00:01:32;63.80;;;38.92;;
76292;SDS011;67256;51.154;4.164;2023-05-14T00:03:58;57.10;;;38.50;;
76292;SDS011;67256;51.154;4.164;2023-05-14T00:06:24;59.40;;;37.50;;
76292;SDS011;67256;51.154;4.164;2023-05-14T00:08:50;49.63;;;36.47;;
76292;SDS011;67256;51.154;4.164;2023-05-14T00:11:15;65.72;;;38.97;;
76292;SDS011;67256;51.154;4.164;2023-05-14T00:13:41;62.55;;;38.40;;
76292;SDS011;67256;51.154;4.164;2023-05-14T00:16:07;79.93;;;38.15;;
76292;SDS011;67256;51.154;4.164;2023-05-14T00:18:32;58.00;;;36.42;;
76292;SDS011;67256;51.154;4.164;2023-05-14T00:20:58;59.38;;;37.10;;
76292;SDS011;67256;51.154;4.164;2023-05-14T00:23:24;58.35;;;34.90;;
76292;SDS011;67256;51.154;4.164;2023-05-14T00:25:49;64.18;;;37.45;;
76292;SDS011;67256;51.154;4.164;2023-05-14T00:28:15;69.03;;;39.55;;
76292;SDS011;67256;51.154;4.164;2023-05-14T00:30:41;69.47;;;39.47;;
76292;SDS011;67256;51.154;4.164;2023-05-14T00:33:06;61.47;;;37.35;;
76292;SDS011;67256;51.154;4.164;2023-05-14T00:35:33;69.85;;;39.78;;
76292;SDS011;67256;51.154;4.164;2023-05-14T00:38:00;62.85;;;38.78;;
76292;SDS011;67256;51.154;4.164;2023-05-14T00:40:26;69.03;;;44.05;;
76292;SDS011;67256;51.154;4.164;2023-05-14T00:42:52;68.65;;;37.05;;
76292;SDS011;67256;51.154;4.164;2023-05-14T00:45:19;60.08;;;37.90;;
76292;SDS011;67256;51.154;4.164;2023-05-14T00:47:44;71.50;;;38.58;;
76292;SDS011;67256;51.154;4.164;2023-05-14T00:50:11;63.70;;;40.83;;
76292;SDS011;67256;51.154;4.164;2023-05-14T00:52:38;63.22;;;39.08;;
76292;SDS011;67256;51.154;4.164;2023-05-14T00:55:05;62.97;;;38.13;;
76292;SDS011;67256;51.154;4.164;2023-05-14T00:57:32;63.85;;;37.42;;
76292;SDS011;67256;51.154;4.164;2023-05-14T01:00:02;69.80;;;36.63;;
76292;SDS011;67256;51.154;4.164;2023-05-14T01:02:28;57.65;;;36.88;;
76292;SDS011;67256;51.154;4.164;2023-05-14T01:04:54;58.85;;;35.72;;
76292;SDS011;67256;51.154;4.164;2023-05-14T01:10:17;57.58;;;36.38;;
76292;SDS011;67256;51.154;4.164;2023-05-14T01:13:09;66.72;;;35.97;;
76292;SDS011;67256;51.154;4.164;2023-05-14T01:15:56;62.50;;;35.10;;
76292;SDS011;67256;51.154;4.164;2023-05-14T01:18:24;57.55;;;35.85;;
76292;SDS011;67256;51.154;4.164;2023-05-14T01:20:52;67.43;;;38.03;;
76292;SDS011;67256;51.154;4.164;2023-05-14T01:23:18;52.35;;;34.53;;
76292;SDS011;67256;51.154;4.164;2023-05-14T01:25:45;57.40;;;35.35;;
76292;SDS011;67256;51.154;4.164;2023-05-14T01:28:12;54.75;;;35.85;;
76292;SDS011;67256;51.154;4.164;2023-05-14T01:31:04;68.20;;;36.33;;
76292;SDS011;67256;51.154;4.164;2023-05-14T01:33:34;65.10;;;35.63;;
76292;SDS011;67256;51.154;4.164;2023-05-14T01:36:00;60.13;;;36.50;;
76292;SDS011;67256;51.154;4.164;2023-05-14T01:38:26;63.85;;;37.33;;
76292;SDS011;67256;51.154;4.164;2023-05-14T01:40:55;64.77;;;38.23;;
76292;SDS011;67256;51.154;4.164;2023-05-14T01:43:22;62.38;;;37.15;;
76292;SDS011;67256;51.154;4.164;2023-05-14T01:45:48;79.97;;;38.38;;
76292;SDS011;67256;51.154;4.164;2023-05-14T01:48:14;67.47;;;38.72;;
76292;SDS011;67256;51.154;4.164;2023-05-14T01:50:40;69.22;;;36.88;;
76292;SDS011;67256;51.154;4.164;2023-05-14T01:53:05;71.88;;;40.13;;
76292;SDS011;67256;51.154;4.164;2023-05-14T01:55:31;60.63;;;35.42;;
76292;SDS011;67256;51.154;4.164;2023-05-14T01:57:57;65.03;;;36.65;;
76292;SDS011;67256;51.154;4.164;2023-05-14T02:00:23;63.40;;;38.05;;
76292;SDS011;67256;51.154;4.164;2023-05-14T02:02:52;60.05;;;35.95;;
76292;SDS011;67256;51.154;4.164;2023-05-14T02:05:17;65.63;;;35.97;;
76292;SDS011;67256;51.154;4.164;2023-05-14T02:07:43;71.70;;;36.25;;
76292;SDS011;67256;51.154;4.164;2023-05-14T02:10:09;71.95;;;37.95;;
76292;SDS011;67256;51.154;4.164;2023-05-14T02:12:35;55.67;;;35.80;;
76292;SDS011;67256;51.154;4.164;2023-05-14T02:15:01;66.40;;;37.00;;
76292;SDS011;67256;51.154;4.164;2023-05-14T02:17:28;61.65;;;37.40;;
76292;SDS011;67256;51.154;4.164;2023-05-14T02:19:54;67.88;;;38.97;;
76292;SDS011;67256;51.154;4.164;2023-05-14T02:22:19;59.25;;;36.78;;
76292;SDS011;67256;51.154;4.164;2023-05-14T02:24:45;68.18;;;36.35;;
76292;SDS011;67256;51.154;4.164;2023-05-14T02:27:11;63.25;;;37.10;;
76292;SDS011;67256;51.154;4.164;2023-05-14T02:29:37;67.90;;;38.95;;
76292;SDS011;67256;51.154;4.164;2023-05-14T02:32:03;66.57;;;38.30;;
76292;SDS011;67256;51.154;4.164;2023-05-14T02:34:29;74.95;;;42.55;;
76292;SDS011;67256;51.154;4.164;2023-05-14T02:36:57;66.55;;;40.63;;
76292;SDS011;67256;51.154;4.164;2023-05-14T02:39:23;73.65;;;38.78;;
76292;SDS011;67256;51.154;4.164;2023-05-14T02:41:48;61.70;;;36.97;;
76292;SDS011;67256;51.154;4.164;2023-05-14T02:44:14;72.35;;;38.78;;
76292;SDS011;67256;51.154;4.164;2023-05-14T02:46:40;67.05;;;40.38;;
76292;SDS011;67256;51.154;4.164;2023-05-14T02:49:05;67.05;;;38.70;;
76292;SDS011;67256;51.154;4.164;2023-05-14T02:51:31;68.65;;;37.40;;
76292;SDS011;67256;51.154;4.164;2023-05-14T02:53:57;69.55;;;39.53;;
76292;SDS011;67256;51.154;4.164;2023-05-14T02:56:22;68.82;;;40.45;;
76292;SDS011;67256;51.154;4.164;2023-05-14T02:58:48;67.53;;;38.80;;
76292;SDS011;67256;51.154;4.164;2023-05-14T03:01:14;70.30;;;40.72;;
76292;SDS011;67256;51.154;4.164;2023-05-14T03:03:40;76.78;;;39.60;;
76292;SDS011;67256;51.154;4.164;2023-05-14T03:06:06;81.10;;;39.85;;
76292;SDS011;67256;51.154;4.164;2023-05-14T03:08:32;80.57;;;39.75;;
76292;SDS011;67256;51.154;4.164;2023-05-14T03:10:57;84.18;;;40.58;;
76292;SDS011;67256;51.154;4.164;2023-05-14T03:13:23;82.55;;;42.53;;
76292;SDS011;67256;51.154;4.164;2023-05-14T03:15:49;87.43;;;43.38;;
76292;SDS011;67256;51.154;4.164;2023-05-14T03:18:18;83.93;;;42.63;;
76292;SDS011;67256;51.154;4.164;2023-05-14T03:20:44;85.70;;;42.75;;
76292;SDS011;67256;51.154;4.164;2023-05-14T03:23:10;89.38;;;41.42;;
76292;SDS011;67256;51.154;4.164;2023-05-14T03:25:36;78.90;;;41.28;;
76292;SDS011;67256;51.154;4.164;2023-05-14T03:28:02;91.53;;;42.83;;
76292;SDS011;67256;51.154;4.164;2023-05-14T03:30:28;87.65;;;41.25;;
76292;SDS011;67256;51.154;4.164;2023-05-14T03:32:54;84.18;;;40.03;;
76292;SDS011;67256;51.154;4.164;2023-05-14T03:35:19;80.20;;;41.58;;
76292;SDS011;67256;51.154;4.164;2023-05-14T03:37:45;80.22;;;39.75;;
76292;SDS011;67256;51.154;4.164;2023-05-14T03:40:11;80.22;;;42.08;;
76292;SDS011;67256;51.154;4.164;2023-05-14T03:42:37;72.28;;;37.70;;
76292;SDS011;67256;51.154;4.164;2023-05-14T03:45:02;72.05;;;39.88;;
76292;SDS011;67256;51.154;4.164;2023-05-14T03:47:28;76.32;;;40.50;;
76292;SDS011;67256;51.154;4.164;2023-05-14T03:49:54;75.38;;;38.00;;
76292;SDS011;67256;51.154;4.164;2023-05-14T03:52:20;76.28;;;38.35;;
76292;SDS011;67256;51.154;4.164;2023-05-14T03:54:47;77.78;;;38.17;;
76292;SDS011;67256;51.154;4.164;2023-05-14T03:57:12;77.07;;;37.53;;
76292;SDS011;67256;51.154;4.164;2023-05-14T03:59:38;74.13;;;38.55;;
76292;SDS011;67256;51.154;4.164;2023-05-14T04:02:04;70.35;;;36.58;;
76292;SDS011;67256;51.154;4.164;2023-05-14T04:04:29;67.07;;;36.38;;
76292;SDS011;67256;51.154;4.164;2023-05-14T04:06:55;67.97;;;35.90;;
76292;SDS011;67256;51.154;4.164;2023-05-14T04:09:21;64.60;;;34.20;;
76292;SDS011;67256;51.154;4.164;2023-05-14T04:11:47;58.83;;;33.40;;
76292;SDS011;67256;51.154;4.164;2023-05-14T04:14:13;63.80;;;35.35;;
76292;SDS011;67256;51.154;4.164;2023-05-14T04:16:38;67.65;;;36.38;;
76292;SDS011;67256;51.154;4.164;2023-05-14T04:19:04;68.78;;;36.35;;
76292;SDS011;67256;51.154;4.164;2023-05-14T04:21:30;85.05;;;35.67;;
76292;SDS011;67256;51.154;4.164;2023-05-14T04:23:55;68.22;;;35.83;;
76292;SDS011;67256;51.154;4.164;2023-05-14T04:26:21;76.25;;;36.35;;
76292;SDS011;67256;51.154;4.164;2023-05-14T04:28:47;72.18;;;34.42;;
76292;SDS011;67256;51.154;4.164;2023-05-14T04:31:12;70.88;;;35.83;;
76292;SDS011;67256;51.154;4.164;2023-05-14T04:33:39;75.70;;;37.45;;
76292;SDS011;67256;51.154;4.164;2023-05-14T04:36:05;83.28;;;34.13;;
76292;SDS011;67256;51.154;4.164;2023-05-14T04:38:31;76.47;;;36.78;;
76292;SDS011;67256;51.154;4.164;2023-05-14T04:40:57;59.53;;;34.28;;
76292;SDS011;67256;51.154;4.164;2023-05-14T04:43:23;71.18;;;36.15;;
76292;SDS011;67256;51.154;4.164;2023-05-14T04:45:48;71.57;;;37.03;;
76292;SDS011;67256;51.154;4.164;2023-05-14T04:48:15;64.15;;;36.85;;
76292;SDS011;67256;51.154;4.164;2023-05-14T04:50:41;67.38;;;34.20;;
76292;SDS011;67256;51.154;4.164;2023-05-14T04:53:08;69.72;;;35.65;;
76292;SDS011;67256;51.154;4.164;2023-05-14T04:55:34;64.70;;;35.60;;
76292;SDS011;67256;51.154;4.164;2023-05-14T04:58:00;67.95;;;37.05;;
76292;SDS011;67256;51.154;4.164;2023-05-14T05:00:26;70.70;;;37.88;;
76292;SDS011;67256;51.154;4.164;2023-05-14T05:02:52;78.68;;;36.67;;
76292;SDS011;67256;51.154;4.164;2023-05-14T05:05:18;76.82;;;37.88;;
76292;SDS011;67256;51.154;4.164;2023-05-14T05:07:44;67.57;;;35.88;;
76292;SDS011;67256;51.154;4.164;2023-05-14T05:10:10;69.55;;;35.65;;
76292;SDS011;67256;51.154;4.164;2023-05-14T05:12:36;65.28;;;33.60;;
76292;SDS011;67256;51.154;4.164;2023-05-14T05:15:02;77.57;;;37.55;;
76292;SDS011;67256;51.154;4.164;2023-05-14T05:17:28;68.40;;;34.05;;
76292;SDS011;67256;51.154;4.164;2023-05-14T05:19:54;64.63;;;34.78;;
76292;SDS011;67256;51.154;4.164;2023-05-14T05:22:20;67.80;;;35.22;;
76292;SDS011;67256;51.154;4.164;2023-05-14T05:24:46;62.65;;;35.25;;
76292;SDS011;67256;51.154;4.164;2023-05-14T05:27:12;63.10;;;33.83;;
76292;SDS011;67256;51.154;4.164;2023-05-14T05:29:38;65.57;;;35.85;;
76292;SDS011;67256;51.154;4.164;2023-05-14T05:32:04;60.92;;;34.58;;
76292;SDS011;67256;51.154;4.164;2023-05-14T05:34:30;59.70;;;36.45;;
76292;SDS011;67256;51.154;4.164;2023-05-14T05:36:56;66.47;;;36.38;;
76292;SDS011;67256;51.154;4.164;2023-05-14T05:39:21;61.05;;;35.08;;
76292;SDS011;67256;51.154;4.164;2023-05-14T05:41:47;60.33;;;34.60;;
76292;SDS011;67256;51.154;4.164;2023-05-14T05:44:13;63.33;;;36.03;;
76292;SDS011;67256;51.154;4.164;2023-05-14T05:46:38;66.95;;;37.08;;
76292;SDS011;67256;51.154;4.164;2023-05-14T05:49:04;59.03;;;35.00;;
76292;SDS011;67256;51.154;4.164;2023-05-14T05:51:32;61.83;;;33.65;;
76292;SDS011;67256;51.154;4.164;2023-05-14T05:53:57;57.15;;;33.55;;
76292;SDS011;67256;51.154;4.164;2023-05-14T05:56:23;58.78;;;33.53;;
76292;SDS011;67256;51.154;4.164;2023-05-14T05:58:49;63.13;;;34.30;;
76292;SDS011;67256;51.154;4.164;2023-05-14T06:01:15;69.10;;;34.47;;
76292;SDS011;67256;51.154;4.164;2023-05-14T06:03:41;54.95;;;33.70;;
76292;SDS011;67256;51.154;4.164;2023-05-14T06:06:06;55.78;;;30.77;;
76292;SDS011;67256;51.154;4.164;2023-05-14T06:08:32;52.00;;;34.95;;
76292;SDS011;67256;51.154;4.164;2023-05-14T06:10:58;53.80;;;32.60;;
76292;SDS011;67256;51.154;4.164;2023-05-14T06:13:23;52.65;;;31.45;;
76292;SDS011;67256;51.154;4.164;2023-05-14T06:15:49;49.70;;;30.60;;
76292;SDS011;67256;51.154;4.164;2023-05-14T06:18:15;44.60;;;28.98;;
76292;SDS011;67256;51.154;4.164;2023-05-14T06:20:41;51.25;;;30.35;;
76292;SDS011;67256;51.154;4.164;2023-05-14T06:23:07;47.13;;;30.00;;
76292;SDS011;67256;51.154;4.164;2023-05-14T06:25:33;54.50;;;31.30;;
76292;SDS011;67256;51.154;4.164;2023-05-14T06:27:58;56.22;;;30.65;;
76292;SDS011;67256;51.154;4.164;2023-05-14T06:30:24;49.65;;;31.25;;
76292;SDS011;67256;51.154;4.164;2023-05-14T06:32:50;49.80;;;29.58;;
76292;SDS011;67256;51.154;4.164;2023-05-14T06:35:17;53.80;;;32.72;;
76292;SDS011;67256;51.154;4.164;2023-05-14T06:37:43;47.58;;;29.55;;
76292;SDS011;67256;51.154;4.164;2023-05-14T06:40:10;47.25;;;31.38;;
76292;SDS011;67256;51.154;4.164;2023-05-14T06:42:36;43.80;;;30.73;;
76292;SDS011;67256;51.154;4.164;2023-05-14T06:45:02;50.03;;;31.08;;
76292;SDS011;67256;51.154;4.164;2023-05-14T06:47:28;46.60;;;29.20;;
76292;SDS011;67256;51.154;4.164;2023-05-14T06:49:54;50.05;;;31.10;;
76292;SDS011;67256;51.154;4.164;2023-05-14T06:52:20;46.75;;;30.48;;
76292;SDS011;67256;51.154;4.164;2023-05-14T06:54:46;45.33;;;30.88;;
76292;SDS011;67256;51.154;4.164;2023-05-14T06:57:12;43.67;;;28.85;;
76292;SDS011;67256;51.154;4.164;2023-05-14T06:59:38;46.30;;;31.35;;
76292;SDS011;67256;51.154;4.164;2023-05-14T07:02:03;44.13;;;30.27;;
76292;SDS011;67256;51.154;4.164;2023-05-14T07:04:29;44.65;;;31.17;;
76292;SDS011;67256;51.154;4.164;2023-05-14T07:06:54;43.00;;;30.52;;
76292;SDS011;67256;51.154;4.164;2023-05-14T07:09:20;43.13;;;32.17;;
76292;SDS011;67256;51.154;4.164;2023-05-14T07:11:46;46.78;;;31.23;;
76292;SDS011;67256;51.154;4.164;2023-05-14T07:14:12;48.38;;;34.25;;
76292;SDS011;67256;51.154;4.164;2023-05-14T07:16:38;42.65;;;31.73;;
76292;SDS011;67256;51.154;4.164;2023-05-14T07:19:05;45.55;;;33.13;;
76292;SDS011;67256;51.154;4.164;2023-05-14T07:21:31;47.83;;;31.27;;
76292;SDS011;67256;51.154;4.164;2023-05-14T07:23:56;42.08;;;30.80;;
76292;SDS011;67256;51.154;4.164;2023-05-14T07:26:22;45.83;;;31.23;;
76292;SDS011;67256;51.154;4.164;2023-05-14T07:28:48;46.33;;;32.50;;
76292;SDS011;67256;51.154;4.164;2023-05-14T07:31:14;51.63;;;33.25;;
76292;SDS011;67256;51.154;4.164;2023-05-14T07:33:39;43.78;;;32.63;;
76292;SDS011;67256;51.154;4.164;2023-05-14T07:36:05;44.22;;;31.25;;
76292;SDS011;67256;51.154;4.164;2023-05-14T07:38:31;48.65;;;30.95;;
76292;SDS011;67256;51.154;4.164;2023-05-14T07:40:57;43.00;;;33.55;;
76292;SDS011;67256;51.154;4.164;2023-05-14T07:43:23;46.88;;;32.92;;
76292;SDS011;67256;51.154;4.164;2023-05-14T07:45:48;45.92;;;33.88;;
76292;SDS011;67256;51.154;4.164;2023-05-14T07:48:14;44.47;;;30.70;;
76292;SDS011;67256;51.154;4.164;2023-05-14T07:50:40;50.00;;;32.28;;
76292;SDS011;67256;51.154;4.164;2023-05-14T07:53:06;44.65;;;32.53;;
76292;SDS011;67256;51.154;4.164;2023-05-14T07:55:32;53.22;;;33.10;;
76292;SDS011;67256;51.154;4.164;2023-05-14T07:57:57;40.78;;;30.73;;
76292;SDS011;67256;51.154;4.164;2023-05-14T08:00:23;43.15;;;32.28;;
76292;SDS011;67256;51.154;4.164;2023-05-14T08:02:49;41.92;;;29.77;;
76292;SDS011;67256;51.154;4.164;2023-05-14T08:05:15;43.58;;;30.80;;
76292;SDS011;67256;51.154;4.164;2023-05-14T08:07:42;37.35;;;29.63;;
76292;SDS011;67256;51.154;4.164;2023-05-14T08:10:08;39.42;;;30.63;;
76292;SDS011;67256;51.154;4.164;2023-05-14T08:12:34;42.63;;;30.10;;
76292;SDS011;67256;51.154;4.164;2023-05-14T08:14:59;44.20;;;29.85;;
76292;SDS011;67256;51.154;4.164;2023-05-14T08:17:26;42.90;;;29.88;;
76292;SDS011;67256;51.154;4.164;2023-05-14T08:19:51;40.33;;;27.45;;
76292;SDS011;67256;51.154;4.164;2023-05-14T08:22:17;38.88;;;27.70;;
76292;SDS011;67256;51.154;4.164;2023-05-14T08:24:43;47.05;;;27.95;;
76292;SDS011;67256;51.154;4.164;2023-05-14T08:27:09;35.88;;;28.15;;
76292;SDS011;67256;51.154;4.164;2023-05-14T08:29:34;37.60;;;28.20;;
76292;SDS011;67256;51.154;4.164;2023-05-14T08:32:00;38.53;;;28.48;;
76292;SDS011;67256;51.154;4.164;2023-05-14T08:34:27;38.83;;;26.80;;
76292;SDS011;67256;51.154;4.164;2023-05-14T08:36:52;40.30;;;27.88;;
76292;SDS011;67256;51.154;4.164;2023-05-14T08:39:18;40.40;;;27.25;;
76292;SDS011;67256;51.154;4.164;2023-05-14T08:41:44;42.22;;;25.92;;
76292;SDS011;67256;51.154;4.164;2023-05-14T08:44:13;38.15;;;27.77;;
76292;SDS011;67256;51.154;4.164;2023-05-14T08:46:42;34.35;;;25.55;;
76292;SDS011;67256;51.154;4.164;2023-05-14T08:49:24;35.28;;;25.70;;
76292;SDS011;67256;51.154;4.164;2023-05-14T08:52:04;40.00;;;28.73;;
76292;SDS011;67256;51.154;4.164;2023-05-14T08:54:32;33.95;;;24.92;;
76292;SDS011;67256;51.154;4.164;2023-05-14T08:56:57;33.08;;;25.00;;
76292;SDS011;67256;51.154;4.164;2023-05-14T08:59:23;36.80;;;26.50;;
76292;SDS011;67256;51.154;4.164;2023-05-14T09:01:50;40.45;;;25.05;;
76292;SDS011;67256;51.154;4.164;2023-05-14T09:04:24;37.65;;;25.27;;
76292;SDS011;67256;51.154;4.164;2023-05-14T09:06:50;35.83;;;25.63;;
76292;SDS011;67256;51.154;4.164;2023-05-14T09:09:18;33.67;;;25.88;;
76292;SDS011;67256;51.154;4.164;2023-05-14T09:11:47;32.47;;;25.08;;
76292;SDS011;67256;51.154;4.164;2023-05-14T09:16:45;37.72;;;24.05;;
76292;SDS011;67256;51.154;4.164;2023-05-14T09:19:12;35.15;;;25.23;;
76292;SDS011;67256;51.154;4.164;2023-05-14T09:21:39;35.45;;;26.50;;
76292;SDS011;67256;51.154;4.164;2023-05-14T09:24:06;34.15;;;25.13;;
76292;SDS011;67256;51.154;4.164;2023-05-14T09:26:32;36.10;;;26.45;;
76292;SDS011;67256;51.154;4.164;2023-05-14T09:28:59;34.83;;;24.45;;
76292;SDS011;67256;51.154;4.164;2023-05-14T09:31:31;32.28;;;25.13;;
76292;SDS011;67256;51.154;4.164;2023-05-14T09:33:57;41.17;;;24.27;;
76292;SDS011;67256;51.154;4.164;2023-05-14T09:36:24;31.83;;;24.98;;
76292;SDS011;67256;51.154;4.164;2023-05-14T09:38:51;31.90;;;23.65;;
76292;SDS011;67256;51.154;4.164;2023-05-14T09:41:27;37.42;;;24.65;;
76292;SDS011;67256;51.154;4.164;2023-05-14T09:43:53;30.35;;;22.70;;
76292;SDS011;67256;51.154;4.164;2023-05-14T09:46:21;34.95;;;24.58;;
76292;SDS011;67256;51.154;4.164;2023-05-14T09:48:47;30.00;;;24.10;;
76292;SDS011;67256;51.154;4.164;2023-05-14T09:51:15;37.10;;;25.15;;
76292;SDS011;67256;51.154;4.164;2023-05-14T09:53:44;30.95;;;22.90;;
76292;SDS011;67256;51.154;4.164;2023-05-14T09:56:11;31.05;;;24.73;;
76292;SDS011;67256;51.154;4.164;2023-05-14T09:58:36;29.27;;;23.63;;
76292;SDS011;67256;51.154;4.164;2023-05-14T10:01:02;32.75;;;24.83;;
76292;SDS011;67256;51.154;4.164;2023-05-14T10:03:29;30.48;;;23.58;;
76292;SDS011;67256;51.154;4.164;2023-05-14T10:05:57;34.60;;;24.98;;
76292;SDS011;67256;51.154;4.164;2023-05-14T10:08:34;37.13;;;26.63;;
76292;SDS011;67256;51.154;4.164;2023-05-14T10:11:01;38.90;;;26.60;;
76292;SDS011;67256;51.154;4.164;2023-05-14T10:13:32;30.55;;;24.83;;
76292;SDS011;67256;51.154;4.164;2023-05-14T10:18:45;33.97;;;22.98;;
76292;SDS011;67256;51.154;4.164;2023-05-14T10:21:15;33.15;;;23.75;;
76292;SDS011;67256;51.154;4.164;2023-05-14T10:23:44;35.88;;;25.35;;
76292;SDS011;67256;51.154;4.164;2023-05-14T10:26:12;32.10;;;24.58;;
76292;SDS011;67256;51.154;4.164;2023-05-14T10:28:38;38.42;;;25.92;;
76292;SDS011;67256;51.154;4.164;2023-05-14T10:31:04;34.38;;;24.00;;
76292;SDS011;67256;51.154;4.164;2023-05-14T10:33:39;29.73;;;22.70;;
76292;SDS011;67256;51.154;4.164;2023-05-14T10:36:12;29.17;;;22.02;;
76292;SDS011;67256;51.154;4.164;2023-05-14T10:38:38;35.83;;;22.20;;
76292;SDS011;67256;51.154;4.164;2023-05-14T10:41:05;31.30;;;21.92;;
76292;SDS011;67256;51.154;4.164;2023-05-14T10:43:36;33.78;;;22.65;;
76292;SDS011;67256;51.154;4.164;2023-05-14T10:46:03;27.00;;;19.92;;
76292;SDS011;67256;51.154;4.164;2023-05-14T10:48:29;24.80;;;20.35;;
76292;SDS011;67256;51.154;4.164;2023-05-14T10:50:56;32.65;;;19.98;;
76292;SDS011;67256;51.154;4.164;2023-05-14T10:56:02;25.65;;;20.77;;
76292;SDS011;67256;51.154;4.164;2023-05-14T10:58:30;28.90;;;21.88;;
76292;SDS011;67256;51.154;4.164;2023-05-14T11:00:59;32.28;;;21.48;;
76292;SDS011;67256;51.154;4.164;2023-05-14T11:03:29;26.52;;;21.33;;
76292;SDS011;67256;51.154;4.164;2023-05-14T11:05:56;26.42;;;20.20;;
76292;SDS011;67256;51.154;4.164;2023-05-14T11:08:24;29.00;;;19.80;;
76292;SDS011;67256;51.154;4.164;2023-05-14T11:10:50;27.73;;;20.95;;
76292;SDS011;67256;51.154;4.164;2023-05-14T11:13:18;23.48;;;18.27;;
76292;SDS011;67256;51.154;4.164;2023-05-14T11:15:44;23.73;;;18.70;;
76292;SDS011;67256;51.154;4.164;2023-05-14T11:18:24;35.15;;;20.05;;
76292;SDS011;67256;51.154;4.164;2023-05-14T11:20:57;27.20;;;20.55;;
76292;SDS011;67256;51.154;4.164;2023-05-14T11:23:25;33.08;;;20.73;;
76292;SDS011;67256;51.154;4.164;2023-05-14T11:25:52;30.20;;;21.50;;
76292;SDS011;67256;51.154;4.164;2023-05-14T11:28:22;25.45;;;18.42;;
76292;SDS011;67256;51.154;4.164;2023-05-14T11:30:50;27.17;;;18.98;;
76292;SDS011;67256;51.154;4.164;2023-05-14T11:33:16;31.45;;;19.98;;
76292;SDS011;67256;51.154;4.164;2023-05-14T11:35:42;30.52;;;20.10;;
76292;SDS011;67256;51.154;4.164;2023-05-14T11:38:13;28.45;;;19.83;;
76292;SDS011;67256;51.154;4.164;2023-05-14T11:40:40;26.27;;;19.45;;
76292;SDS011;67256;51.154;4.164;2023-05-14T11:43:06;23.75;;;17.33;;
76292;SDS011;67256;51.154;4.164;2023-05-14T11:45:32;26.23;;;19.15;;
76292;SDS011;67256;51.154;4.164;2023-05-14T11:47:58;23.50;;;18.02;;
76292;SDS011;67256;51.154;4.164;2023-05-14T11:50:23;28.65;;;19.45;;
76292;SDS011;67256;51.154;4.164;2023-05-14T11:52:49;30.80;;;18.50;;
76292;SDS011;67256;51.154;4.164;2023-05-14T11:55:16;31.30;;;21.48;;
76292;SDS011;67256;51.154;4.164;2023-05-14T11:57:41;30.60;;;18.75;;
76292;SDS011;67256;51.154;4.164;2023-05-14T12:00:08;24.17;;;19.13;;
76292;SDS011;67256;51.154;4.164;2023-05-14T12:02:37;27.55;;;18.70;;
76292;SDS011;67256;51.154;4.164;2023-05-14T12:05:03;27.20;;;17.98;;
76292;SDS011;67256;51.154;4.164;2023-05-14T12:07:31;26.15;;;15.73;;
76292;SDS011;67256;51.154;4.164;2023-05-14T12:09:59;28.38;;;17.92;;
76292;SDS011;67256;51.154;4.164;2023-05-14T12:12:25;28.90;;;19.00;;
76292;SDS011;67256;51.154;4.164;2023-05-14T12:14:51;31.42;;;19.08;;
76292;SDS011;67256;51.154;4.164;2023-05-14T12:17:18;23.85;;;16.58;;
76292;SDS011;67256;51.154;4.164;2023-05-14T12:19:46;26.90;;;18.23;;
76292;SDS011;67256;51.154;4.164;2023-05-14T12:22:13;26.88;;;16.88;;
76292;SDS011;67256;51.154;4.164;2023-05-14T12:24:57;29.25;;;16.83;;
76292;SDS011;67256;51.154;4.164;2023-05-14T12:27:24;26.92;;;17.35;;
76292;SDS011;67256;51.154;4.164;2023-05-14T12:29:57;24.27;;;16.88;;
76292;SDS011;67256;51.154;4.164;2023-05-14T12:32:24;28.92;;;17.08;;
76292;SDS011;67256;51.154;4.164;2023-05-14T12:34:51;24.83;;;17.60;;
76292;SDS011;67256;51.154;4.164;2023-05-14T12:37:16;22.75;;;17.35;;
76292;SDS011;67256;51.154;4.164;2023-05-14T12:39:42;25.33;;;16.50;;
76292;SDS011;67256;51.154;4.164;2023-05-14T12:42:08;25.55;;;17.25;;
76292;SDS011;67256;51.154;4.164;2023-05-14T12:44:34;24.52;;;17.08;;
76292;SDS011;67256;51.154;4.164;2023-05-14T12:46:59;25.92;;;17.25;;
76292;SDS011;67256;51.154;4.164;2023-05-14T12:49:26;24.95;;;17.67;;
76292;SDS011;67256;51.154;4.164;2023-05-14T12:51:51;24.45;;;17.90;;
76292;SDS011;67256;51.154;4.164;2023-05-14T12:54:17;23.95;;;16.75;;
76292;SDS011;67256;51.154;4.164;2023-05-14T12:56:43;26.20;;;16.40;;
76292;SDS011;67256;51.154;4.164;2023-05-14T12:59:09;22.60;;;16.33;;
76292;SDS011;67256;51.154;4.164;2023-05-14T13:01:34;25.40;;;16.58;;
76292;SDS011;67256;51.154;4.164;2023-05-14T13:04:01;34.83;;;17.77;;
76292;SDS011;67256;51.154;4.164;2023-05-14T13:06:27;24.38;;;15.18;;
76292;SDS011;67256;51.154;4.164;2023-05-14T13:08:53;22.60;;;16.65;;
76292;SDS011;67256;51.154;4.164;2023-05-14T13:11:18;28.17;;;16.65;;
76292;SDS011;67256;51.154;4.164;2023-05-14T13:13:45;23.88;;;16.25;;
76292;SDS011;67256;51.154;4.164;2023-05-14T13:16:10;25.73;;;16.08;;
76292;SDS011;67256;51.154;4.164;2023-05-14T13:18:40;30.58;;;16.33;;
76292;SDS011;67256;51.154;4.164;2023-05-14T13:21:06;24.92;;;15.95;;
76292;SDS011;67256;51.154;4.164;2023-05-14T13:23:32;23.02;;;14.45;;
76292;SDS011;67256;51.154;4.164;2023-05-14T13:25:57;26.50;;;15.10;;
76292;SDS011;67256;51.154;4.164;2023-05-14T13:28:23;22.10;;;14.57;;
76292;SDS011;67256;51.154;4.164;2023-05-14T13:31:02;21.75;;;15.05;;
76292;SDS011;67256;51.154;4.164;2023-05-14T13:33:31;19.00;;;13.45;;
76292;SDS011;67256;51.154;4.164;2023-05-14T13:35:58;21.05;;;12.40;;
76292;SDS011;67256;51.154;4.164;2023-05-14T13:38:24;18.70;;;12.50;;
76292;SDS011;67256;51.154;4.164;2023-05-14T13:40:49;17.05;;;10.65;;
76292;SDS011;67256;51.154;4.164;2023-05-14T13:43:15;18.52;;;10.55;;
76292;SDS011;67256;51.154;4.164;2023-05-14T13:45:41;14.52;;;10.30;;
76292;SDS011;67256;51.154;4.164;2023-05-14T13:48:06;18.00;;;9.85;;
76292;SDS011;67256;51.154;4.164;2023-05-14T13:50:32;18.55;;;11.55;;
76292;SDS011;67256;51.154;4.164;2023-05-14T13:52:58;17.23;;;11.43;;
76292;SDS011;67256;51.154;4.164;2023-05-14T13:55:24;21.98;;;12.38;;
76292;SDS011;67256;51.154;4.164;2023-05-14T13:57:50;18.10;;;12.07;;
76292;SDS011;67256;51.154;4.164;2023-05-14T14:00:15;22.33;;;11.93;;
76292;SDS011;67256;51.154;4.164;2023-05-14T14:02:41;21.83;;;12.52;;
76292;SDS011;67256;51.154;4.164;2023-05-14T14:05:07;16.55;;;11.90;;
76292;SDS011;67256;51.154;4.164;2023-05-14T14:07:33;16.17;;;12.13;;
76292;SDS011;67256;51.154;4.164;2023-05-14T14:09:59;17.90;;;10.20;;
76292;SDS011;67256;51.154;4.164;2023-05-14T14:12:25;18.85;;;10.50;;
76292;SDS011;67256;51.154;4.164;2023-05-14T14:14:51;20.10;;;12.40;;
76292;SDS011;67256;51.154;4.164;2023-05-14T14:17:17;20.35;;;12.70;;
76292;SDS011;67256;51.154;4.164;2023-05-14T14:19:43;19.60;;;13.95;;
76292;SDS011;67256;51.154;4.164;2023-05-14T14:22:08;23.63;;;13.35;;
76292;SDS011;67256;51.154;4.164;2023-05-14T14:24:36;20.77;;;12.80;;
76292;SDS011;67256;51.154;4.164;2023-05-14T14:27:02;21.85;;;15.05;;
76292;SDS011;67256;51.154;4.164;2023-05-14T14:29:28;19.17;;;13.65;;